sensor_id;sensor_type;location;lat;lon;timestamp;P1;durP1;ratioP1;P2;durP2;ratioP2
73693;SDS011;61997;53.974;11.670;2024-01-11T00:00:43;9.52;;;5.20;;
73693;SDS011;61997;53.974;11.670;2024-01-11T00:03:09;8.77;;;4.97;;
73693;SDS011;61997;53.974;11.670;2024-01-11T00:05:34;10.93;;;5.32;;
73693;SDS011;61997;53.974;11.670;2024-01-11T00:08:00;11.07;;;4.85;;
73693;SDS011;61997;53.974;11.670;2024-01-11T00:10:25;10.07;;;5.13;;
73693;SDS011;61997;53.974;11.670;2024-01-11T00:12:51;9.35;;;5.18;;
73693;SDS011;61997;53.974;11.670;2024-01-11T00:15:16;10.40;;;5.07;;
73693;SDS011;61997;53.974;11.670;2024-01-11T00:17:41;9.20;;;4.90;;
73693;SDS011;61997;53.974;11.670;2024-01-11T00:20:07;7.57;;;5.15;;
73693;SDS011;61997;53.974;11.670;2024-01-11T00:22:33;12.05;;;5.55;;
73693;SDS011;61997;53.974;11.670;2024-01-11T00:24:58;11.13;;;5.38;;
73693;SDS011;61997;53.974;11.670;2024-01-11T00:27:23;10.45;;;6.03;;
73693;SDS011;61997;53.974;11.670;2024-01-11T00:29:49;9.50;;;5.15;;
73693;SDS011;61997;53.974;11.670;2024-01-11T00:32:14;12.60;;;5.55;;
73693;SDS011;61997;53.974;11.670;2024-01-11T00:34:40;10.57;;;5.60;;
73693;SDS011;61997;53.974;11.670;2024-01-11T00:37:05;12.32;;;5.97;;
73693;SDS011;61997;53.974;11.670;2024-01-11T00:39:31;10.93;;;5.70;;
73693;SDS011;61997;53.974;11.670;2024-01-11T00:41:56;9.88;;;5.63;;
73693;SDS011;61997;53.974;11.670;2024-01-11T00:44:22;12.77;;;6.93;;
73693;SDS011;61997;53.974;11.670;2024-01-11T00:46:47;12.32;;;6.20;;
73693;SDS011;61997;53.974;11.670;2024-01-11T00:49:12;11.88;;;6.10;;
73693;SDS011;61997;53.974;11.670;2024-01-11T00:51:38;9.98;;;5.53;;
73693;SDS011;61997;53.974;11.670;2024-01-11T00:54:03;8.32;;;6.05;;
73693;SDS011;61997;53.974;11.670;2024-01-11T00:56:29;13.40;;;6.90;;
73693;SDS011;61997;53.974;11.670;2024-01-11T00:58:54;11.32;;;5.55;;
73693;SDS011;61997;53.974;11.670;2024-01-11T01:01:19;11.82;;;6.68;;
73693;SDS011;61997;53.974;11.670;2024-01-11T01:03:45;9.88;;;5.70;;
73693;SDS011;61997;53.974;11.670;2024-01-11T01:06:10;11.07;;;6.20;;
73693;SDS011;61997;53.974;11.670;2024-01-11T01:08:36;12.50;;;6.18;;
73693;SDS011;61997;53.974;11.670;2024-01-11T01:11:01;8.77;;;5.80;;
73693;SDS011;61997;53.974;11.670;2024-01-11T01:13:26;9.82;;;5.40;;
73693;SDS011;61997;53.974;11.670;2024-01-11T01:15:52;9.60;;;5.55;;
73693;SDS011;61997;53.974;11.670;2024-01-11T01:18:17;11.45;;;5.30;;
73693;SDS011;61997;53.974;11.670;2024-01-11T01:20:43;11.18;;;6.07;;
73693;SDS011;61997;53.974;11.670;2024-01-11T01:23:08;13.30;;;5.35;;
73693;SDS011;61997;53.974;11.670;2024-01-11T01:25:33;8.55;;;5.13;;
73693;SDS011;61997;53.974;11.670;2024-01-11T01:27:59;11.82;;;6.63;;
73693;SDS011;61997;53.974;11.670;2024-01-11T01:30:26;9.88;;;5.95;;
73693;SDS011;61997;53.974;11.670;2024-01-11T01:32:51;12.27;;;6.90;;
73693;SDS011;61997;53.974;11.670;2024-01-11T01:35:17;11.48;;;5.25;;
73693;SDS011;61997;53.974;11.670;2024-01-11T01:37:42;11.68;;;5.13;;
73693;SDS011;61997;53.974;11.670;2024-01-11T01:40:08;11.82;;;5.30;;
73693;SDS011;61997;53.974;11.670;2024-01-11T01:42:34;11.45;;;5.95;;
73693;SDS011;61997;53.974;11.670;2024-01-11T01:44:59;10.45;;;5.28;;
73693;SDS011;61997;53.974;11.670;2024-01-11T01:47:25;9.52;;;5.13;;
73693;SDS011;61997;53.974;11.670;2024-01-11T01:49:51;10.73;;;6.00;;
73693;SDS011;61997;53.974;11.670;2024-01-11T01:52:17;13.95;;;6.32;;
73693;SDS011;61997;53.974;11.670;2024-01-11T01:54:44;11.27;;;5.55;;
73693;SDS011;61997;53.974;11.670;2024-01-11T01:57:09;7.57;;;5.97;;
73693;SDS011;61997;53.974;11.670;2024-01-11T01:59:35;14.00;;;5.50;;
73693;SDS011;61997;53.974;11.670;2024-01-11T02:02:03;10.13;;;5.35;;
73693;SDS011;61997;53.974;11.670;2024-01-11T02:04:29;9.50;;;5.72;;
73693;SDS011;61997;53.974;11.670;2024-01-11T02:06:54;12.65;;;6.07;;
73693;SDS011;61997;53.974;11.670;2024-01-11T02:09:21;9.45;;;5.30;;
73693;SDS011;61997;53.974;11.670;2024-01-11T02:11:47;7.85;;;4.82;;
73693;SDS011;61997;53.974;11.670;2024-01-11T02:14:13;10.32;;;5.28;;
73693;SDS011;61997;53.974;11.670;2024-01-11T02:16:38;9.23;;;5.10;;
73693;SDS011;61997;53.974;11.670;2024-01-11T02:19:07;13.55;;;6.07;;
73693;SDS011;61997;53.974;11.670;2024-01-11T02:21:37;11.90;;;6.38;;
73693;SDS011;61997;53.974;11.670;2024-01-11T02:24:04;11.20;;;5.72;;
73693;SDS011;61997;53.974;11.670;2024-01-11T02:26:29;9.63;;;5.22;;
73693;SDS011;61997;53.974;11.670;2024-01-11T02:28:55;9.45;;;5.38;;
73693;SDS011;61997;53.974;11.670;2024-01-11T02:31:20;9.18;;;5.22;;
73693;SDS011;61997;53.974;11.670;2024-01-11T02:33:46;11.35;;;5.55;;
73693;SDS011;61997;53.974;11.670;2024-01-11T02:36:11;9.13;;;4.85;;
73693;SDS011;61997;53.974;11.670;2024-01-11T02:38:38;10.93;;;5.55;;
73693;SDS011;61997;53.974;11.670;2024-01-11T02:41:03;13.55;;;6.07;;
73693;SDS011;61997;53.974;11.670;2024-01-11T02:43:29;9.02;;;5.22;;
73693;SDS011;61997;53.974;11.670;2024-01-11T02:45:55;9.48;;;4.72;;
73693;SDS011;61997;53.974;11.670;2024-01-11T02:48:21;8.80;;;4.95;;
73693;SDS011;61997;53.974;11.670;2024-01-11T02:50:48;10.27;;;4.68;;
73693;SDS011;61997;53.974;11.670;2024-01-11T02:53:14;8.68;;;4.25;;
73693;SDS011;61997;53.974;11.670;2024-01-11T02:55:39;9.25;;;4.35;;
73693;SDS011;61997;53.974;11.670;2024-01-11T02:58:05;9.98;;;4.65;;
73693;SDS011;61997;53.974;11.670;2024-01-11T03:00:30;10.75;;;5.25;;
73693;SDS011;61997;53.974;11.670;2024-01-11T03:02:55;9.43;;;4.30;;
73693;SDS011;61997;53.974;11.670;2024-01-11T03:05:21;8.35;;;4.25;;
73693;SDS011;61997;53.974;11.670;2024-01-11T03:07:46;9.80;;;4.65;;
73693;SDS011;61997;53.974;11.670;2024-01-11T03:10:11;8.95;;;4.53;;
73693;SDS011;61997;53.974;11.670;2024-01-11T03:12:37;9.50;;;4.80;;
73693;SDS011;61997;53.974;11.670;2024-01-11T03:15:02;10.07;;;4.88;;
73693;SDS011;61997;53.974;11.670;2024-01-11T03:17:28;11.13;;;4.57;;
73693;SDS011;61997;53.974;11.670;2024-01-11T03:19:53;10.60;;;5.03;;
73693;SDS011;61997;53.974;11.670;2024-01-11T03:22:19;9.95;;;4.05;;
73693;SDS011;61997;53.974;11.670;2024-01-11T03:24:44;10.73;;;4.50;;
73693;SDS011;61997;53.974;11.670;2024-01-11T03:27:09;10.65;;;4.45;;
73693;SDS011;61997;53.974;11.670;2024-01-11T03:29:35;6.68;;;4.40;;
73693;SDS011;61997;53.974;11.670;2024-01-11T03:32:00;8.70;;;4.13;;
73693;SDS011;61997;53.974;11.670;2024-01-11T03:34:25;6.38;;;4.68;;
73693;SDS011;61997;53.974;11.670;2024-01-11T03:36:51;8.85;;;4.30;;
73693;SDS011;61997;53.974;11.670;2024-01-11T03:39:16;11.00;;;5.80;;
73693;SDS011;61997;53.974;11.670;2024-01-11T03:41:45;10.23;;;4.57;;
73693;SDS011;61997;53.974;11.670;2024-01-11T03:44:10;10.32;;;3.63;;
73693;SDS011;61997;53.974;11.670;2024-01-11T03:46:36;6.53;;;3.97;;
73693;SDS011;61997;53.974;11.670;2024-01-11T03:49:02;7.07;;;3.90;;
73693;SDS011;61997;53.974;11.670;2024-01-11T03:51:27;6.97;;;4.65;;
73693;SDS011;61997;53.974;11.670;2024-01-11T03:53:52;6.78;;;3.80;;
73693;SDS011;61997;53.974;11.670;2024-01-11T03:56:18;6.65;;;3.55;;
73693;SDS011;61997;53.974;11.670;2024-01-11T03:58:44;7.28;;;4.60;;
73693;SDS011;61997;53.974;11.670;2024-01-11T04:01:10;8.05;;;4.25;;
73693;SDS011;61997;53.974;11.670;2024-01-11T04:03:36;8.68;;;4.32;;
73693;SDS011;61997;53.974;11.670;2024-01-11T04:06:02;8.27;;;4.15;;
73693;SDS011;61997;53.974;11.670;2024-01-11T04:08:28;6.35;;;4.05;;
73693;SDS011;61997;53.974;11.670;2024-01-11T04:10:53;8.02;;;3.88;;
73693;SDS011;61997;53.974;11.670;2024-01-11T04:13:18;8.00;;;4.05;;
73693;SDS011;61997;53.974;11.670;2024-01-11T04:15:44;7.93;;;4.05;;
73693;SDS011;61997;53.974;11.670;2024-01-11T04:18:09;7.28;;;3.85;;
73693;SDS011;61997;53.974;11.670;2024-01-11T04:20:35;5.45;;;3.55;;
73693;SDS011;61997;53.974;11.670;2024-01-11T04:23:00;8.70;;;4.05;;
73693;SDS011;61997;53.974;11.670;2024-01-11T04:25:25;6.53;;;3.55;;
73693;SDS011;61997;53.974;11.670;2024-01-11T04:27:51;6.55;;;3.15;;
73693;SDS011;61997;53.974;11.670;2024-01-11T04:30:16;9.70;;;4.13;;
73693;SDS011;61997;53.974;11.670;2024-01-11T04:32:41;9.35;;;3.83;;
73693;SDS011;61997;53.974;11.670;2024-01-11T04:35:07;6.45;;;3.20;;
73693;SDS011;61997;53.974;11.670;2024-01-11T04:37:33;7.10;;;3.45;;
73693;SDS011;61997;53.974;11.670;2024-01-11T04:40:00;6.55;;;3.47;;
73693;SDS011;61997;53.974;11.670;2024-01-11T04:42:28;5.15;;;3.60;;
73693;SDS011;61997;53.974;11.670;2024-01-11T04:44:54;6.90;;;3.67;;
73693;SDS011;61997;53.974;11.670;2024-01-11T04:47:19;4.95;;;3.33;;
73693;SDS011;61997;53.974;11.670;2024-01-11T04:49:45;6.30;;;3.70;;
73693;SDS011;61997;53.974;11.670;2024-01-11T04:52:10;8.07;;;3.78;;
73693;SDS011;61997;53.974;11.670;2024-01-11T04:54:36;4.90;;;3.03;;
73693;SDS011;61997;53.974;11.670;2024-01-11T04:57:01;6.57;;;3.08;;
73693;SDS011;61997;53.974;11.670;2024-01-11T04:59:27;7.75;;;3.53;;
73693;SDS011;61997;53.974;11.670;2024-01-11T05:01:52;6.72;;;3.50;;
73693;SDS011;61997;53.974;11.670;2024-01-11T05:04:17;10.65;;;3.15;;
73693;SDS011;61997;53.974;11.670;2024-01-11T05:06:43;5.38;;;3.00;;
73693;SDS011;61997;53.974;11.670;2024-01-11T05:09:08;5.85;;;2.50;;
73693;SDS011;61997;53.974;11.670;2024-01-11T05:11:33;7.40;;;3.35;;
73693;SDS011;61997;53.974;11.670;2024-01-11T05:13:59;4.95;;;2.95;;
73693;SDS011;61997;53.974;11.670;2024-01-11T05:16:25;4.68;;;2.80;;
73693;SDS011;61997;53.974;11.670;2024-01-11T05:18:52;5.63;;;2.97;;
73693;SDS011;61997;53.974;11.670;2024-01-11T05:21:18;6.35;;;3.22;;
73693;SDS011;61997;53.974;11.670;2024-01-11T05:23:44;4.95;;;3.00;;
73693;SDS011;61997;53.974;11.670;2024-01-11T05:26:09;8.30;;;3.00;;
73693;SDS011;61997;53.974;11.670;2024-01-11T05:28:35;6.32;;;2.72;;
73693;SDS011;61997;53.974;11.670;2024-01-11T05:31:01;6.50;;;3.03;;
73693;SDS011;61997;53.974;11.670;2024-01-11T05:33:26;5.72;;;3.20;;
73693;SDS011;61997;53.974;11.670;2024-01-11T05:35:51;6.28;;;2.72;;
73693;SDS011;61997;53.974;11.670;2024-01-11T05:38:18;5.70;;;3.08;;
73693;SDS011;61997;53.974;11.670;2024-01-11T05:40:44;5.40;;;2.70;;
73693;SDS011;61997;53.974;11.670;2024-01-11T05:43:10;6.72;;;3.17;;
73693;SDS011;61997;53.974;11.670;2024-01-11T05:45:35;5.28;;;2.95;;
73693;SDS011;61997;53.974;11.670;2024-01-11T05:48:00;6.32;;;2.85;;
73693;SDS011;61997;53.974;11.670;2024-01-11T05:50:26;7.60;;;3.05;;
73693;SDS011;61997;53.974;11.670;2024-01-11T05:52:54;5.65;;;2.75;;
73693;SDS011;61997;53.974;11.670;2024-01-11T05:55:21;5.38;;;2.40;;
73693;SDS011;61997;53.974;11.670;2024-01-11T05:57:47;7.15;;;2.92;;
73693;SDS011;61997;53.974;11.670;2024-01-11T06:00:12;5.53;;;2.55;;
73693;SDS011;61997;53.974;11.670;2024-01-11T06:02:38;7.07;;;2.88;;
73693;SDS011;61997;53.974;11.670;2024-01-11T06:05:03;4.32;;;2.72;;
73693;SDS011;61997;53.974;11.670;2024-01-11T06:07:29;4.13;;;2.80;;
73693;SDS011;61997;53.974;11.670;2024-01-11T06:09:54;7.43;;;3.22;;
73693;SDS011;61997;53.974;11.670;2024-01-11T06:12:20;5.53;;;2.60;;
73693;SDS011;61997;53.974;11.670;2024-01-11T06:14:45;5.45;;;2.47;;
73693;SDS011;61997;53.974;11.670;2024-01-11T06:17:11;4.63;;;2.33;;
73693;SDS011;61997;53.974;11.670;2024-01-11T06:19:37;3.78;;;1.92;;
73693;SDS011;61997;53.974;11.670;2024-01-11T06:22:03;4.50;;;2.35;;
73693;SDS011;61997;53.974;11.670;2024-01-11T06:24:30;4.72;;;2.22;;
73693;SDS011;61997;53.974;11.670;2024-01-11T06:26:55;4.88;;;2.70;;
73693;SDS011;61997;53.974;11.670;2024-01-11T06:29:20;5.63;;;2.58;;
73693;SDS011;61997;53.974;11.670;2024-01-11T06:31:46;5.72;;;2.75;;
73693;SDS011;61997;53.974;11.670;2024-01-11T06:34:11;6.40;;;2.83;;
73693;SDS011;61997;53.974;11.670;2024-01-11T06:36:37;6.93;;;2.70;;
73693;SDS011;61997;53.974;11.670;2024-01-11T06:39:02;5.00;;;2.40;;
73693;SDS011;61997;53.974;11.670;2024-01-11T06:41:29;4.88;;;2.83;;
73693;SDS011;61997;53.974;11.670;2024-01-11T06:43:54;6.20;;;2.83;;
73693;SDS011;61997;53.974;11.670;2024-01-11T06:46:20;4.72;;;2.88;;
73693;SDS011;61997;53.974;11.670;2024-01-11T06:48:46;4.28;;;2.30;;
73693;SDS011;61997;53.974;11.670;2024-01-11T06:51:15;5.72;;;2.63;;
73693;SDS011;61997;53.974;11.670;2024-01-11T06:53:41;4.53;;;2.47;;
73693;SDS011;61997;53.974;11.670;2024-01-11T06:56:17;7.45;;;3.38;;
73693;SDS011;61997;53.974;11.670;2024-01-11T07:01:15;4.88;;;2.30;;
73693;SDS011;61997;53.974;11.670;2024-01-11T07:03:40;5.35;;;2.35;;
73693;SDS011;61997;53.974;11.670;2024-01-11T07:06:05;6.63;;;3.10;;
73693;SDS011;61997;53.974;11.670;2024-01-11T07:08:31;3.78;;;2.25;;
73693;SDS011;61997;53.974;11.670;2024-01-11T07:11:03;5.13;;;2.42;;
73693;SDS011;61997;53.974;11.670;2024-01-11T07:13:29;4.53;;;2.20;;
73693;SDS011;61997;53.974;11.670;2024-01-11T07:15:55;4.22;;;2.15;;
73693;SDS011;61997;53.974;11.670;2024-01-11T07:18:22;6.05;;;2.45;;
73693;SDS011;61997;53.974;11.670;2024-01-11T07:20:47;3.72;;;2.17;;
73693;SDS011;61997;53.974;11.670;2024-01-11T07:23:13;3.78;;;2.45;;
73693;SDS011;61997;53.974;11.670;2024-01-11T07:25:39;4.38;;;2.08;;
73693;SDS011;61997;53.974;11.670;2024-01-11T07:28:05;4.53;;;2.20;;
73693;SDS011;61997;53.974;11.670;2024-01-11T07:30:31;4.22;;;1.90;;
73693;SDS011;61997;53.974;11.670;2024-01-11T07:32:56;3.88;;;2.05;;
73693;SDS011;61997;53.974;11.670;2024-01-11T07:35:21;4.35;;;2.75;;
73693;SDS011;61997;53.974;11.670;2024-01-11T07:37:47;5.53;;;2.40;;
73693;SDS011;61997;53.974;11.670;2024-01-11T07:40:12;3.00;;;1.85;;
73693;SDS011;61997;53.974;11.670;2024-01-11T07:42:38;3.35;;;1.75;;
73693;SDS011;61997;53.974;11.670;2024-01-11T07:45:05;4.68;;;2.40;;
73693;SDS011;61997;53.974;11.670;2024-01-11T07:47:31;5.20;;;2.15;;
73693;SDS011;61997;53.974;11.670;2024-01-11T07:49:58;4.10;;;2.15;;
73693;SDS011;61997;53.974;11.670;2024-01-11T07:52:24;4.22;;;2.10;;
73693;SDS011;61997;53.974;11.670;2024-01-11T07:54:49;4.45;;;1.90;;
73693;SDS011;61997;53.974;11.670;2024-01-11T07:57:14;4.90;;;2.22;;
73693;SDS011;61997;53.974;11.670;2024-01-11T07:59:40;3.67;;;2.17;;
73693;SDS011;61997;53.974;11.670;2024-01-11T08:02:06;4.97;;;1.90;;
73693;SDS011;61997;53.974;11.670;2024-01-11T08:04:31;3.33;;;2.50;;
73693;SDS011;61997;53.974;11.670;2024-01-11T08:06:57;4.82;;;2.65;;
73693;SDS011;61997;53.974;11.670;2024-01-11T08:09:24;2.55;;;1.80;;
73693;SDS011;61997;53.974;11.670;2024-01-11T08:11:50;4.07;;;2.20;;
73693;SDS011;61997;53.974;11.670;2024-01-11T08:14:17;3.92;;;1.83;;
73693;SDS011;61997;53.974;11.670;2024-01-11T08:16:43;3.15;;;1.80;;
73693;SDS011;61997;53.974;11.670;2024-01-11T08:19:08;5.32;;;2.70;;
73693;SDS011;61997;53.974;11.670;2024-01-11T08:21:35;4.47;;;2.15;;
73693;SDS011;61997;53.974;11.670;2024-01-11T08:24:00;3.85;;;2.25;;
73693;SDS011;61997;53.974;11.670;2024-01-11T08:26:27;4.72;;;1.80;;
73693;SDS011;61997;53.974;11.670;2024-01-11T08:28:53;3.65;;;1.63;;
73693;SDS011;61997;53.974;11.670;2024-01-11T08:31:18;3.67;;;2.10;;
73693;SDS011;61997;53.974;11.670;2024-01-11T08:33:44;3.55;;;1.75;;
73693;SDS011;61997;53.974;11.670;2024-01-11T08:36:10;3.08;;;1.63;;
73693;SDS011;61997;53.974;11.670;2024-01-11T08:38:36;3.65;;;1.90;;
73693;SDS011;61997;53.974;11.670;2024-01-11T08:41:02;2.17;;;1.50;;
73693;SDS011;61997;53.974;11.670;2024-01-11T08:43:28;4.57;;;2.15;;
73693;SDS011;61997;53.974;11.670;2024-01-11T08:45:54;4.40;;;2.13;;
73693;SDS011;61997;53.974;11.670;2024-01-11T08:48:19;4.25;;;1.65;;
73693;SDS011;61997;53.974;11.670;2024-01-11T08:50:45;3.83;;;1.80;;
73693;SDS011;61997;53.974;11.670;2024-01-11T08:53:11;4.75;;;1.90;;
73693;SDS011;61997;53.974;11.670;2024-01-11T08:55:36;4.43;;;1.92;;
73693;SDS011;61997;53.974;11.670;2024-01-11T08:58:01;3.85;;;1.88;;
73693;SDS011;61997;53.974;11.670;2024-01-11T09:00:27;3.40;;;1.77;;
73693;SDS011;61997;53.974;11.670;2024-01-11T09:02:52;4.07;;;2.22;;
73693;SDS011;61997;53.974;11.670;2024-01-11T09:05:18;2.53;;;1.60;;
73693;SDS011;61997;53.974;11.670;2024-01-11T09:07:44;1.98;;;1.33;;
73693;SDS011;61997;53.974;11.670;2024-01-11T09:10:10;2.70;;;1.52;;
73693;SDS011;61997;53.974;11.670;2024-01-11T09:12:37;3.33;;;1.73;;
73693;SDS011;61997;53.974;11.670;2024-01-11T09:15:04;3.67;;;1.63;;
73693;SDS011;61997;53.974;11.670;2024-01-11T09:17:33;3.67;;;1.38;;
73693;SDS011;61997;53.974;11.670;2024-01-11T09:20:02;2.20;;;1.17;;
73693;SDS011;61997;53.974;11.670;2024-01-11T09:22:28;4.97;;;1.73;;
73693;SDS011;61997;53.974;11.670;2024-01-11T09:24:54;2.28;;;1.40;;
73693;SDS011;61997;53.974;11.670;2024-01-11T09:27:19;4.15;;;1.92;;
73693;SDS011;61997;53.974;11.670;2024-01-11T09:29:45;2.63;;;1.73;;
73693;SDS011;61997;53.974;11.670;2024-01-11T09:32:11;3.83;;;1.80;;
73693;SDS011;61997;53.974;11.670;2024-01-11T09:34:38;9.30;;;1.85;;
73693;SDS011;61997;53.974;11.670;2024-01-11T09:37:03;4.47;;;1.77;;
73693;SDS011;61997;53.974;11.670;2024-01-11T09:39:29;4.78;;;1.80;;
73693;SDS011;61997;53.974;11.670;2024-01-11T09:41:58;3.63;;;1.45;;
73693;SDS011;61997;53.974;11.670;2024-01-11T09:44:37;4.03;;;1.50;;
73693;SDS011;61997;53.974;11.670;2024-01-11T09:47:03;2.63;;;1.42;;
73693;SDS011;61997;53.974;11.670;2024-01-11T09:49:31;2.88;;;1.80;;
73693;SDS011;61997;53.974;11.670;2024-01-11T09:51:58;3.00;;;1.58;;
73693;SDS011;61997;53.974;11.670;2024-01-11T09:54:26;3.95;;;1.50;;
73693;SDS011;61997;53.974;11.670;2024-01-11T09:56:52;2.78;;;1.35;;
73693;SDS011;61997;53.974;11.670;2024-01-11T09:59:19;3.13;;;1.95;;
73693;SDS011;61997;53.974;11.670;2024-01-11T10:01:49;3.95;;;1.30;;
73693;SDS011;61997;53.974;11.670;2024-01-11T10:04:15;2.97;;;1.30;;
73693;SDS011;61997;53.974;11.670;2024-01-11T10:06:41;2.67;;;1.30;;
73693;SDS011;61997;53.974;11.670;2024-01-11T10:09:07;2.55;;;1.42;;
73693;SDS011;61997;53.974;11.670;2024-01-11T10:11:33;3.55;;;1.50;;
73693;SDS011;61997;53.974;11.670;2024-01-11T10:13:59;4.40;;;1.50;;
73693;SDS011;61997;53.974;11.670;2024-01-11T10:16:27;3.20;;;1.55;;
73693;SDS011;61997;53.974;11.670;2024-01-11T10:18:55;2.40;;;1.13;;
73693;SDS011;61997;53.974;11.670;2024-01-11T10:21:22;2.63;;;1.35;;
73693;SDS011;61997;53.974;11.670;2024-01-11T10:23:51;5.07;;;1.60;;
73693;SDS011;61997;53.974;11.670;2024-01-11T10:26:17;4.57;;;1.42;;
73693;SDS011;61997;53.974;11.670;2024-01-11T10:28:45;3.67;;;1.45;;
73693;SDS011;61997;53.974;11.670;2024-01-11T10:31:11;2.90;;;1.25;;
73693;SDS011;61997;53.974;11.670;2024-01-11T10:33:40;1.77;;;1.10;;
73693;SDS011;61997;53.974;11.670;2024-01-11T10:36:05;1.98;;;1.10;;
73693;SDS011;61997;53.974;11.670;2024-01-11T10:38:34;2.50;;;1.15;;
73693;SDS011;61997;53.974;11.670;2024-01-11T10:41:00;2.97;;;1.40;;
73693;SDS011;61997;53.974;11.670;2024-01-11T10:43:31;1.67;;;0.90;;
73693;SDS011;61997;53.974;11.670;2024-01-11T10:45:58;2.97;;;1.25;;
73693;SDS011;61997;53.974;11.670;2024-01-11T10:48:25;3.47;;;1.60;;
73693;SDS011;61997;53.974;11.670;2024-01-11T10:50:58;2.75;;;1.25;;
73693;SDS011;61997;53.974;11.670;2024-01-11T10:53:26;2.03;;;1.40;;
73693;SDS011;61997;53.974;11.670;2024-01-11T10:55:59;2.65;;;1.20;;
73693;SDS011;61997;53.974;11.670;2024-01-11T10:58:26;1.88;;;1.17;;
73693;SDS011;61997;53.974;11.670;2024-01-11T11:00:53;3.75;;;1.38;;
73693;SDS011;61997;53.974;11.670;2024-01-11T11:03:20;3.03;;;1.30;;
73693;SDS011;61997;53.974;11.670;2024-01-11T11:05:48;2.50;;;1.13;;
73693;SDS011;61997;53.974;11.670;2024-01-11T11:08:15;3.25;;;1.20;;
73693;SDS011;61997;53.974;11.670;2024-01-11T11:10:42;2.65;;;1.40;;
73693;SDS011;61997;53.974;11.670;2024-01-11T11:13:10;2.15;;;0.98;;
73693;SDS011;61997;53.974;11.670;2024-01-11T11:15:39;1.60;;;1.02;;
73693;SDS011;61997;53.974;11.670;2024-01-11T11:18:06;2.80;;;1.13;;
73693;SDS011;61997;53.974;11.670;2024-01-11T11:20:32;2.33;;;1.20;;
73693;SDS011;61997;53.974;11.670;2024-01-11T11:23:04;2.08;;;1.10;;
73693;SDS011;61997;53.974;11.670;2024-01-11T11:25:30;3.38;;;1.13;;
73693;SDS011;61997;53.974;11.670;2024-01-11T11:27:55;1.92;;;0.95;;
73693;SDS011;61997;53.974;11.670;2024-01-11T11:30:21;2.33;;;0.95;;
73693;SDS011;61997;53.974;11.670;2024-01-11T11:32:46;1.25;;;0.70;;
73693;SDS011;61997;53.974;11.670;2024-01-11T11:35:12;1.45;;;0.70;;
73693;SDS011;61997;53.974;11.670;2024-01-11T11:37:40;2.08;;;1.00;;
73693;SDS011;61997;53.974;11.670;2024-01-11T11:40:06;2.60;;;1.35;;
73693;SDS011;61997;53.974;11.670;2024-01-11T11:42:36;2.78;;;1.02;;
73693;SDS011;61997;53.974;11.670;2024-01-11T11:45:02;2.28;;;1.08;;
73693;SDS011;61997;53.974;11.670;2024-01-11T11:47:37;2.60;;;0.80;;
73693;SDS011;61997;53.974;11.670;2024-01-11T11:50:07;1.90;;;1.23;;
73693;SDS011;61997;53.974;11.670;2024-01-11T11:52:34;2.70;;;0.93;;
73693;SDS011;61997;53.974;11.670;2024-01-11T11:55:01;2.72;;;1.27;;
73693;SDS011;61997;53.974;11.670;2024-01-11T11:57:27;2.05;;;1.08;;
73693;SDS011;61997;53.974;11.670;2024-01-11T11:59:56;2.22;;;1.02;;
73693;SDS011;61997;53.974;11.670;2024-01-11T12:02:28;1.67;;;1.10;;
73693;SDS011;61997;53.974;11.670;2024-01-11T12:04:53;1.55;;;0.65;;
73693;SDS011;61997;53.974;11.670;2024-01-11T12:07:22;1.98;;;0.75;;
73693;SDS011;61997;53.974;11.670;2024-01-11T12:09:48;2.72;;;0.90;;
73693;SDS011;61997;53.974;11.670;2024-01-11T12:12:14;3.20;;;1.27;;
73693;SDS011;61997;53.974;11.670;2024-01-11T12:14:40;2.22;;;1.10;;
73693;SDS011;61997;53.974;11.670;2024-01-11T12:17:06;2.08;;;0.80;;
73693;SDS011;61997;53.974;11.670;2024-01-11T12:19:32;2.55;;;1.33;;
73693;SDS011;61997;53.974;11.670;2024-01-11T12:21:57;2.88;;;1.05;;
73693;SDS011;61997;53.974;11.670;2024-01-11T12:24:23;2.15;;;0.93;;
73693;SDS011;61997;53.974;11.670;2024-01-11T12:26:49;1.83;;;0.93;;
73693;SDS011;61997;53.974;11.670;2024-01-11T12:29:17;2.28;;;1.05;;
73693;SDS011;61997;53.974;11.670;2024-01-11T12:31:43;2.45;;;0.93;;
73693;SDS011;61997;53.974;11.670;2024-01-11T12:34:08;2.53;;;1.27;;
73693;SDS011;61997;53.974;11.670;2024-01-11T12:36:34;2.60;;;1.00;;
73693;SDS011;61997;53.974;11.670;2024-01-11T12:39:00;1.58;;;0.90;;
73693;SDS011;61997;53.974;11.670;2024-01-11T12:41:25;1.45;;;0.85;;
73693;SDS011;61997;53.974;11.670;2024-01-11T12:43:51;2.10;;;0.80;;
73693;SDS011;61997;53.974;11.670;2024-01-11T12:46:17;1.08;;;0.70;;
73693;SDS011;61997;53.974;11.670;2024-01-11T12:48:43;2.97;;;1.10;;
73693;SDS011;61997;53.974;11.670;2024-01-11T12:51:08;1.30;;;0.77;;
73693;SDS011;61997;53.974;11.670;2024-01-11T12:53:35;3.58;;;1.20;;
73693;SDS011;61997;53.974;11.670;2024-01-11T12:56:04;1.73;;;1.00;;
73693;SDS011;61997;53.974;11.670;2024-01-11T12:58:35;2.15;;;1.15;;
73693;SDS011;61997;53.974;11.670;2024-01-11T13:01:04;2.13;;;1.00;;
73693;SDS011;61997;53.974;11.670;2024-01-11T13:03:32;2.45;;;1.15;;
73693;SDS011;61997;53.974;11.670;2024-01-11T13:05:58;2.03;;;0.90;;
73693;SDS011;61997;53.974;11.670;2024-01-11T13:08:24;3.22;;;1.05;;
73693;SDS011;61997;53.974;11.670;2024-01-11T13:10:50;2.33;;;1.02;;
73693;SDS011;61997;53.974;11.670;2024-01-11T13:13:15;2.47;;;1.10;;
73693;SDS011;61997;53.974;11.670;2024-01-11T13:15:41;2.15;;;1.20;;
73693;SDS011;61997;53.974;11.670;2024-01-11T13:18:06;2.08;;;1.20;;
73693;SDS011;61997;53.974;11.670;2024-01-11T13:20:31;2.72;;;1.10;;
73693;SDS011;61997;53.974;11.670;2024-01-11T13:23:16;1.92;;;0.90;;
73693;SDS011;61997;53.974;11.670;2024-01-11T13:25:44;4.22;;;1.15;;
73693;SDS011;61997;53.974;11.670;2024-01-11T13:28:11;2.65;;;1.40;;
73693;SDS011;61997;53.974;11.670;2024-01-11T13:30:40;1.98;;;1.05;;
73693;SDS011;61997;53.974;11.670;2024-01-11T13:33:06;1.83;;;0.90;;
73693;SDS011;61997;53.974;11.670;2024-01-11T13:38:01;2.28;;;1.42;;
73693;SDS011;61997;53.974;11.670;2024-01-11T13:40:28;2.10;;;1.50;;
73693;SDS011;61997;53.974;11.670;2024-01-11T13:42:57;2.42;;;1.10;;
73693;SDS011;61997;53.974;11.670;2024-01-11T13:45:23;4.18;;;1.80;;
73693;SDS011;61997;53.974;11.670;2024-01-11T13:47:49;4.15;;;2.40;;
73693;SDS011;61997;53.974;11.670;2024-01-11T13:50:14;4.38;;;2.22;;
73693;SDS011;61997;53.974;11.670;2024-01-11T13:52:41;4.40;;;2.28;;
73693;SDS011;61997;53.974;11.670;2024-01-11T13:55:07;4.10;;;2.13;;
73693;SDS011;61997;53.974;11.670;2024-01-11T13:57:35;5.85;;;2.88;;
73693;SDS011;61997;53.974;11.670;2024-01-11T14:00:02;5.75;;;2.67;;
73693;SDS011;61997;53.974;11.670;2024-01-11T14:02:28;8.00;;;3.47;;
73693;SDS011;61997;53.974;11.670;2024-01-11T14:04:53;4.78;;;3.38;;
73693;SDS011;61997;53.974;11.670;2024-01-11T14:07:18;6.82;;;3.78;;
73693;SDS011;61997;53.974;11.670;2024-01-11T14:09:44;8.02;;;4.20;;
73693;SDS011;61997;53.974;11.670;2024-01-11T14:12:09;9.05;;;4.55;;
73693;SDS011;61997;53.974;11.670;2024-01-11T14:14:35;8.18;;;5.10;;
73693;SDS011;61997;53.974;11.670;2024-01-11T14:17:00;11.60;;;5.80;;
73693;SDS011;61997;53.974;11.670;2024-01-11T14:19:26;8.20;;;4.90;;
73693;SDS011;61997;53.974;11.670;2024-01-11T14:21:53;12.05;;;6.03;;
73693;SDS011;61997;53.974;11.670;2024-01-11T14:24:18;14.02;;;6.80;;
73693;SDS011;61997;53.974;11.670;2024-01-11T14:26:43;11.32;;;5.80;;
73693;SDS011;61997;53.974;11.670;2024-01-11T14:29:10;12.30;;;6.30;;
73693;SDS011;61997;53.974;11.670;2024-01-11T14:31:36;12.65;;;6.68;;